Ava, Illinois
Current Conditions -  °F | °C
As of 7:52 AM on Thursday 27 Nov 2014 (Local Time) from KMDH Reporting Station
Overcast Overcast  
Wind Chill: 17°   Ceiling: 1900
Heat Index: 29°   Visibility: 9mi
Dew Point: 22°   Wind: 16mph
Humidity: 75%   Direction: 340°NNW
Pressure: 30.45"   Gusts: 23mph
Location:  37.89°N, 89.49°W
Report Text: KMDH 271352Z AUTO 34014G20KT 9SM OVC019 M02/M06 A3045 RMK AO2 SLP315 T10171056
Loading
Personal Weather Stations






























Interactive Weather Map New forecast layout! Learn more

10-Day Weather Forecast

Advertisements
Track Severe Weather on mobile